Time;durP1;ratioP1;P1;durP2;ratioP2;P2;SDS_P1;SDS_P2;PMS_P1;PMS_P2;Temp;Humidity;BMP_temperature;BMP_pressure;BME280_temperature;BME280_humidity;BME280_pressure;Samples;Min_cycle;Max_cycle;Signal;HPM_P1;HPM_P2
2022/04/10 00:00:27;;;;;;;3.47;2.00;;;;;;;1.43;89.78;94603.00;4953307;28;20636;-60
2022/04/10 00:03:13;;;;;;;4.40;2.50;;;;;;;1.39;89.86;94609.59;4968427;28;20275;-60
2022/04/10 00:05:59;;;;;;;3.07;2.00;;;;;;;1.36;91.20;94605.03;4963157;28;20203;-60
2022/04/10 00:08:45;;;;;;;3.40;2.13;;;;;;;1.33;91.74;94617.38;4968485;28;20682;-59
2022/04/10 00:11:30;;;;;;;5.30;2.27;;;;;;;1.33;93.32;94620.06;4954587;28;20259;-60
2022/04/10 00:14:16;;;;;;;3.77;2.33;;;;;;;1.38;93.95;94616.91;4968458;28;20743;-59
2022/04/10 00:17:02;;;;;;;4.37;2.07;;;;;;;1.21;93.01;94610.59;4966079;28;20232;-60
2022/04/10 00:19:48;;;;;;;3.10;2.63;;;;;;;1.27;94.34;94618.22;4968972;28;20224;-59
2022/04/10 00:22:45;;;;;;;4.17;2.40;;;;;;;1.21;94.29;94617.91;4969969;28;20220;-60
2022/04/10 00:25:31;;;;;;;3.67;2.43;;;;;;;1.21;95.55;94612.53;4959727;28;20266;-60
2022/04/10 00:28:17;;;;;;;4.03;2.23;;;;;;;1.04;97.04;94608.91;4969081;28;20280;-60
2022/04/10 00:31:03;;;;;;;2.37;2.17;;;;;;;1.06;97.52;94611.94;4968235;28;20643;-59
2022/04/10 00:33:49;;;;;;;3.63;2.10;;;;;;;1.04;98.31;94614.28;4963501;28;20320;-60
2022/04/10 00:36:35;;;;;;;5.33;2.60;;;;;;;1.10;98.60;94604.59;4958319;28;20290;-60
2022/04/10 00:39:20;;;;;;;5.00;2.33;;;;;;;1.05;99.49;94615.78;4953915;28;20213;-59
2022/04/10 00:42:06;;;;;;;2.90;1.90;;;;;;;1.09;99.68;94611.13;4957259;28;20304;-59
2022/04/10 00:44:52;;;;;;;4.20;2.10;;;;;;;1.06;99.41;94611.94;4962457;28;20269;-60
2022/04/10 00:47:38;;;;;;;7.00;2.67;;;;;;;1.14;99.96;94616.06;4967383;28;21018;-59
2022/04/10 00:50:25;;;;;;;4.77;2.47;;;;;;;1.09;99.17;94613.84;4954187;28;20214;-59
2022/04/10 00:53:12;;;;;;;4.70;2.10;;;;;;;1.04;100.00;94616.19;4966690;28;20213;-59
2022/04/10 00:55:58;;;;;;;4.63;2.40;;;;;;;1.08;100.00;94625.00;4964738;28;20271;-59
2022/04/10 00:58:44;;;;;;;4.67;2.60;;;;;;;1.03;100.00;94618.16;4962878;28;20232;-60
2022/04/10 01:01:30;;;;;;;5.20;2.30;;;;;;;1.08;100.00;94612.31;4967590;28;20275;-59
2022/04/10 01:04:16;;;;;;;3.53;2.43;;;;;;;1.08;100.00;94619.63;4937968;28;20186;-59
2022/04/10 01:07:04;;;;;;;5.30;2.50;;;;;;;1.01;100.00;94615.09;4965544;28;20965;-60
2022/04/10 01:09:51;;;;;;;6.20;2.90;;;;;;;1.03;100.00;94612.75;4950179;28;20224;-60
2022/04/10 01:12:37;;;;;;;5.50;2.27;;;;;;;0.95;100.00;94616.69;4963652;28;20590;-59
2022/04/10 01:15:29;;;;;;;5.53;2.40;;;;;;;0.96;100.00;94614.75;4947764;28;20189;-59
2022/04/10 01:18:16;;;;;;;5.37;2.47;;;;;;;1.02;100.00;94621.97;4942488;28;20285;-59
2022/04/10 01:21:03;;;;;;;3.93;2.30;;;;;;;0.96;100.00;94623.59;4955005;28;20223;-59
2022/04/10 01:23:56;;;;;;;3.90;2.40;;;;;;;1.04;100.00;94621.56;4953367;28;20268;-59
2022/04/10 01:26:44;;;;;;;5.20;2.60;;;;;;;1.05;100.00;94620.44;4948256;28;21439;-59
2022/04/10 01:29:30;;;;;;;4.50;2.77;;;;;;;1.01;100.00;94631.22;4954913;28;20316;-59
2022/04/10 01:32:16;;;;;;;3.53;2.57;;;;;;;1.06;100.00;94628.09;4956764;28;20208;-59
2022/04/10 01:35:04;;;;;;;4.60;2.60;;;;;;;1.15;100.00;94624.91;4951431;28;20193;-59
2022/04/10 01:37:51;;;;;;;4.20;2.30;;;;;;;1.10;100.00;94634.16;4964903;28;20205;-59
2022/04/10 01:40:42;;;;;;;9.20;3.00;;;;;;;1.20;100.00;94630.56;4943855;28;20230;-59
2022/04/10 01:43:28;;;;;;;3.70;2.87;;;;;;;1.19;100.00;94628.28;4945823;28;20599;-59
2022/04/10 01:46:15;;;;;;;4.63;2.80;;;;;;;1.19;100.00;94626.38;4953762;28;20480;-59
2022/04/10 01:49:03;;;;;;;3.23;2.50;;;;;;;1.27;100.00;94624.38;4952730;28;20221;-58
2022/04/10 01:51:49;;;;;;;5.63;2.57;;;;;;;1.35;100.00;94625.03;4965021;28;20722;-58
2022/04/10 01:54:36;;;;;;;4.40;2.30;;;;;;;1.32;100.00;94620.47;4954003;28;20275;-58
2022/04/10 01:57:22;;;;;;;3.97;2.67;;;;;;;1.39;100.00;94623.06;4964738;28;20198;-58
2022/04/10 02:00:09;;;;;;;5.90;2.90;;;;;;;1.34;100.00;94621.56;4953226;28;20621;-58
2022/04/10 02:03:03;;;;;;;4.57;2.77;;;;;;;1.37;100.00;94620.78;4954893;28;20225;-58
2022/04/10 02:05:49;;;;;;;4.73;2.97;;;;;;;1.37;100.00;94625.38;4954633;28;20280;-58
2022/04/10 02:08:36;;;;;;;5.53;2.23;;;;;;;1.22;100.00;94624.81;4954450;28;20639;-58
2022/04/10 02:11:23;;;;;;;8.53;2.37;;;;;;;1.12;100.00;94629.16;4966970;28;20628;-58
2022/04/10 02:14:14;;;;;;;5.13;2.40;;;;;;;1.10;100.00;94638.81;4955566;28;20699;-58
2022/04/10 02:17:00;;;;;;;3.00;2.33;;;;;;;1.21;100.00;94634.81;4964794;28;20196;-58
2022/04/10 02:19:46;;;;;;;2.90;2.43;;;;;;;1.25;100.00;94629.38;4950839;28;20248;-58
2022/04/10 02:22:32;;;;;;;3.20;2.50;;;;;;;1.23;100.00;94623.66;4944688;28;20583;-62
2022/04/10 02:25:18;;;;;;;6.03;2.77;;;;;;;1.32;100.00;94633.91;4950459;28;20248;-58
2022/04/10 02:28:04;;;;;;;8.53;3.00;;;;;;;1.23;100.00;94632.47;4941789;28;20248;-58
2022/04/10 02:30:50;;;;;;;4.57;2.73;;;;;;;1.28;100.00;94633.94;4946625;28;20248;-59
2022/04/10 02:33:38;;;;;;;5.37;2.50;;;;;;;1.22;100.00;94641.69;4947810;28;20217;-59
2022/04/10 02:36:24;;;;;;;3.03;2.63;;;;;;;1.23;100.00;94648.63;4952231;28;20215;-60
2022/04/10 02:39:10;;;;;;;7.50;2.87;;;;;;;1.24;100.00;94647.44;4950577;28;20221;-59
2022/04/10 02:41:56;;;;;;;3.43;2.50;;;;;;;1.30;100.00;94639.69;4967452;28;20197;-59
2022/04/10 02:44:42;;;;;;;4.03;3.07;;;;;;;1.31;100.00;94645.84;4954386;28;20662;-60
2022/04/10 02:47:27;;;;;;;5.77;3.33;;;;;;;1.42;100.00;94644.53;4966660;28;20215;-59
2022/04/10 02:50:14;;;;;;;3.73;2.60;;;;;;;1.43;100.00;94648.75;4947233;28;20222;-59
2022/04/10 02:53:00;;;;;;;4.07;2.97;;;;;;;1.41;100.00;94656.44;4966458;28;20737;-59
2022/04/10 02:55:47;;;;;;;4.50;2.60;;;;;;;1.49;100.00;94651.75;4962652;28;20192;-60
2022/04/10 02:58:34;;;;;;;2.50;2.30;;;;;;;1.55;100.00;94658.97;4943381;28;20220;-60
2022/04/10 03:01:22;;;;;;;5.70;3.27;;;;;;;1.55;100.00;94664.34;4951238;28;20204;-60
2022/04/10 03:04:08;;;;;;;4.83;2.73;;;;;;;1.56;100.00;94657.03;4951322;28;20189;-60
2022/04/10 03:06:54;;;;;;;4.70;3.17;;;;;;;1.60;100.00;94655.03;4948983;28;20197;-60
2022/04/10 03:09:40;;;;;;;5.93;3.50;;;;;;;1.65;100.00;94659.97;4953645;28;20260;-59
2022/04/10 03:12:26;;;;;;;4.47;3.03;;;;;;;1.66;100.00;94662.28;4946973;29;20189;-59
2022/04/10 03:15:12;;;;;;;8.23;3.10;;;;;;;1.64;100.00;94664.59;4951333;28;20200;-60
2022/04/10 03:17:58;;;;;;;5.57;3.07;;;;;;;1.54;100.00;94662.06;4950612;28;20200;-59
2022/04/10 03:20:45;;;;;;;4.70;2.80;;;;;;;1.64;100.00;94669.22;4945409;28;20380;-59
2022/04/10 03:23:32;;;;;;;3.93;3.07;;;;;;;1.63;100.00;94670.41;4952346;28;20204;-59
2022/04/10 03:26:18;;;;;;;3.23;2.93;;;;;;;1.72;100.00;94665.25;4961463;28;20263;-60
2022/04/10 03:29:04;;;;;;;3.87;2.90;;;;;;;1.65;100.00;94668.03;4950875;28;20706;-60
2022/04/10 03:31:50;;;;;;;5.30;3.37;;;;;;;1.69;100.00;94669.53;4965490;28;20193;-60
2022/04/10 03:34:36;;;;;;;4.33;3.00;;;;;;;1.63;100.00;94670.41;4944531;28;20202;-59
2022/04/10 03:37:22;;;;;;;5.10;2.50;;;;;;;1.58;100.00;94666.22;4952505;28;20554;-59
2022/04/10 03:40:09;;;;;;;5.23;3.03;;;;;;;1.54;100.00;94676.28;4947246;28;20299;-59
2022/04/10 03:42:55;;;;;;;2.83;2.53;;;;;;;1.53;100.00;94674.75;4953804;28;20197;-59
2022/04/10 03:45:42;;;;;;;4.27;2.60;;;;;;;1.58;100.00;94679.66;4944587;28;20216;-59
2022/04/10 03:48:29;;;;;;;3.13;2.37;;;;;;;1.61;100.00;94676.19;4952805;28;20209;-59
2022/04/10 03:51:15;;;;;;;4.23;2.60;;;;;;;1.54;100.00;94672.81;4951110;28;20387;-59
2022/04/10 03:54:03;;;;;;;4.93;2.67;;;;;;;1.51;100.00;94676.31;4934107;28;20221;-59
2022/04/10 03:56:49;;;;;;;6.17;2.40;;;;;;;1.47;100.00;94673.69;4950672;28;20197;-60
2022/04/10 03:59:35;;;;;;;4.23;2.73;;;;;;;1.55;100.00;94685.09;4945393;28;20216;-59
2022/04/10 04:02:22;;;;;;;5.07;2.77;;;;;;;1.45;100.00;94684.06;4954436;28;20193;-59
2022/04/10 04:05:09;;;;;;;4.47;2.97;;;;;;;1.52;100.00;94681.31;4957062;28;20204;-60
2022/04/10 04:07:56;;;;;;;4.63;2.80;;;;;;;1.46;100.00;94687.53;4947313;28;20197;-59
2022/04/10 04:10:44;;;;;;;5.37;2.67;;;;;;;1.52;100.00;94680.53;4953699;28;20274;-59
2022/04/10 04:13:30;;;;;;;5.27;2.97;;;;;;;1.47;100.00;94683.66;4946221;28;20255;-60
2022/04/10 04:16:16;;;;;;;8.50;2.97;;;;;;;1.56;100.00;94695.44;4949752;28;20296;-60
2022/04/10 04:19:03;;;;;;;4.97;2.80;;;;;;;1.55;100.00;94691.25;4954599;28;20228;-59
2022/04/10 04:21:49;;;;;;;7.30;3.00;;;;;;;1.40;100.00;94699.91;4955510;28;20549;-59
2022/04/10 04:24:35;;;;;;;4.63;3.07;;;;;;;1.47;100.00;94689.06;4967095;28;20625;-59
2022/04/10 04:27:22;;;;;;;4.13;2.97;;;;;;;1.47;100.00;94697.13;4950675;28;20233;-59
2022/04/10 04:30:08;;;;;;;4.90;3.00;;;;;;;1.50;100.00;94699.78;4955901;28;20289;-59
2022/04/10 04:32:58;;;;;;;4.80;3.23;;;;;;;1.46;100.00;94701.00;4954521;28;20256;-60
2022/04/10 04:35:44;;;;;;;2.97;2.63;;;;;;;1.35;100.00;94697.66;4957023;28;20212;-59
2022/04/10 04:38:30;;;;;;;5.73;3.33;;;;;;;1.42;100.00;94697.56;4952596;28;20223;-59
2022/04/10 04:41:16;;;;;;;3.63;2.80;;;;;;;1.30;100.00;94690.03;4955114;28;20655;-60
2022/04/10 04:44:02;;;;;;;5.20;3.10;;;;;;;1.40;100.00;94697.22;4953721;28;20212;-59
2022/04/10 04:46:48;;;;;;;7.37;3.40;;;;;;;1.47;100.00;94710.56;4951227;28;20694;-59
2022/04/10 04:49:34;;;;;;;3.33;3.03;;;;;;;1.49;100.00;94710.94;4950433;28;20220;-60
2022/04/10 04:52:21;;;;;;;5.17;3.53;;;;;;;1.47;100.00;94708.66;4937440;28;20197;-59
2022/04/10 04:55:08;;;;;;;5.97;3.23;;;;;;;1.40;100.00;94705.28;4949383;28;20205;-60
2022/04/10 04:57:53;;;;;;;4.23;3.10;;;;;;;1.49;100.00;94710.94;4965943;28;20294;-60
2022/04/10 05:00:39;;;;;;;5.93;3.50;;;;;;;1.40;100.00;94726.81;4946669;28;20206;-60
2022/04/10 05:03:26;;;;;;;5.33;3.03;;;;;;;1.48;100.00;94730.94;4967678;28;20211;-60
2022/04/10 05:06:12;;;;;;;5.90;3.43;;;;;;;1.55;100.00;94723.53;4952138;28;20201;-60
2022/04/10 05:08:58;;;;;;;6.17;3.20;;;;;;;1.63;100.00;94740.38;4955328;28;20251;-60
2022/04/10 05:11:44;;;;;;;7.73;3.63;;;;;;;1.47;100.00;94738.25;4952833;28;20232;-59
2022/04/10 05:14:30;;;;;;;3.57;3.10;;;;;;;1.45;100.00;94739.81;4955841;28;20676;-59
2022/04/10 05:17:17;;;;;;;4.40;3.20;;;;;;;1.53;100.00;94741.28;4929624;28;20209;-59
2022/04/10 05:20:07;;;;;;;4.90;3.20;;;;;;;1.54;100.00;94746.25;4949724;28;20242;-60
2022/04/10 05:22:59;;;;;;;4.03;3.40;;;;;;;1.57;100.00;94753.50;4950330;28;20282;-59
2022/04/10 05:25:48;;;;;;;7.87;3.60;;;;;;;1.65;100.00;94754.16;4951920;28;20198;-59
2022/04/10 05:28:34;;;;;;;4.40;3.13;;;;;;;1.78;100.00;94769.38;4966293;28;20798;-59
2022/04/10 05:31:21;;;;;;;3.83;3.30;;;;;;;1.80;100.00;94750.16;4957270;28;20244;-60
2022/04/10 05:34:07;;;;;;;8.23;3.50;;;;;;;1.87;100.00;94766.97;4948894;28;20599;-60
2022/04/10 05:36:53;;;;;;;4.63;3.47;;;;;;;1.96;100.00;94772.63;4962769;28;20213;-60
2022/04/10 05:39:39;;;;;;;6.70;3.60;;;;;;;1.93;100.00;94773.44;4948731;28;20940;-59
2022/04/10 05:42:27;;;;;;;6.83;3.47;;;;;;;2.06;100.00;94787.88;4942964;28;20256;-59
2022/04/10 05:45:13;;;;;;;6.07;3.33;;;;;;;2.03;100.00;94786.00;4968614;28;20252;-62
2022/04/10 05:48:03;;;;;;;3.77;3.17;;;;;;;1.97;100.00;94770.72;4951961;28;20236;-62
2022/04/10 05:50:51;;;;;;;5.67;4.00;;;;;;;1.90;100.00;94792.34;4949084;28;20292;-62
2022/04/10 05:53:38;;;;;;;6.90;3.60;;;;;;;1.96;100.00;94796.84;4943084;28;20224;-62
2022/04/10 05:56:24;;;;;;;6.13;3.40;;;;;;;2.00;100.00;94789.47;4941761;28;20205;-62
2022/04/10 05:59:10;;;;;;;7.17;3.30;;;;;;;2.06;100.00;94792.50;4958203;28;20217;-62
2022/04/10 06:01:57;;;;;;;7.90;3.53;;;;;;;2.19;100.00;94791.53;4951705;28;20201;-62
2022/04/10 06:04:44;;;;;;;5.80;4.10;;;;;;;2.25;100.00;94803.41;4969773;28;20240;-62
2022/04/10 06:07:33;;;;;;;5.40;3.27;;;;;;;2.26;100.00;94804.91;4950728;28;20677;-62
2022/04/10 06:10:19;;;;;;;3.83;2.93;;;;;;;2.38;100.00;94817.06;4952976;28;20231;-62
2022/04/10 06:13:11;;;;;;;4.73;3.33;;;;;;;2.36;100.00;94814.78;4941772;28;20224;-62
2022/04/10 06:16:05;;;;;;;6.50;4.07;;;;;;;2.52;100.00;94811.47;4955879;28;20201;-62
2022/04/10 06:18:51;;;;;;;4.73;3.70;;;;;;;2.55;100.00;94823.38;4955200;28;20224;-62
2022/04/10 06:21:37;;;;;;;6.40;3.97;;;;;;;2.69;100.00;94823.16;4963706;28;20211;-62
2022/04/10 06:24:24;;;;;;;6.07;4.17;;;;;;;2.57;100.00;94823.72;4946715;28;20194;-61
2022/04/10 06:27:10;;;;;;;4.80;3.73;;;;;;;2.56;100.00;94824.91;4944135;28;20745;-62
2022/04/10 06:29:57;;;;;;;4.37;3.47;;;;;;;2.52;100.00;94832.28;4933716;29;20240;-62
2022/04/10 06:32:43;;;;;;;4.17;3.33;;;;;;;2.49;100.00;94833.88;4950698;29;20217;-62
2022/04/10 06:35:29;;;;;;;4.30;3.60;;;;;;;2.70;100.00;94840.88;4953409;28;20235;-62
2022/04/10 06:38:17;;;;;;;5.43;3.97;;;;;;;2.52;100.00;94841.13;4944494;28;20225;-62
2022/04/10 06:41:09;;;;;;;6.20;4.37;;;;;;;2.58;100.00;94847.56;4947378;28;20193;-62
2022/04/10 06:43:55;;;;;;;5.27;3.93;;;;;;;2.49;100.00;94845.38;4956341;28;20189;-62
2022/04/10 06:47:02;;;;;;;7.50;3.87;;;;;;;2.69;100.00;94840.13;4942917;28;20209;-62
2022/04/10 06:49:54;;;;;;;5.70;3.53;;;;;;;2.68;100.00;94854.00;4941956;28;20296;-62
2022/04/10 06:52:40;;;;;;;7.77;4.10;;;;;;;2.50;100.00;94854.25;4961544;28;20241;-62
2022/04/10 06:55:26;;;;;;;5.50;4.20;;;;;;;2.19;100.00;94858.88;4952065;28;20201;-62
2022/04/10 06:58:12;;;;;;;8.20;4.60;;;;;;;2.03;100.00;94861.41;4934434;28;20256;-62
2022/04/10 07:01:00;;;;;;;6.33;4.20;;;;;;;2.03;100.00;94856.03;4958606;28;20204;-62
2022/04/10 07:03:46;;;;;;;5.10;4.03;;;;;;;2.09;100.00;94859.00;4947882;28;20200;-62
2022/04/10 07:06:35;;;;;;;4.70;4.20;;;;;;;2.17;100.00;94872.00;4951408;28;20730;-62
2022/04/10 07:09:21;;;;;;;9.37;5.00;;;;;;;2.27;100.00;94870.34;4955014;28;20217;-62
2022/04/10 07:12:09;;;;;;;5.87;4.83;;;;;;;2.31;100.00;94879.13;4967818;28;20205;-62
2022/04/10 07:15:02;;;;;;;6.57;4.93;;;;;;;2.51;100.00;94881.97;4963951;28;20232;-62
2022/04/10 07:17:47;;;;;;;5.50;4.13;;;;;;;2.46;100.00;94885.88;4945885;28;20717;-62
2022/04/10 07:20:34;;;;;;;6.50;4.10;;;;;;;2.46;100.00;94883.19;4951922;28;20295;-62
2022/04/10 07:26:52;;;;;;;6.40;4.67;;;;;;;2.45;100.00;94884.34;4960017;28;20714;-62
2022/04/10 07:29:38;;;;;;;5.20;4.63;;;;;;;2.26;100.00;94877.66;4954410;28;20212;-63
2022/04/10 07:32:25;;;;;;;10.30;4.77;;;;;;;2.48;100.00;94889.69;4935242;29;20205;-62
2022/04/10 07:35:19;;;;;;;7.40;5.27;;;;;;;3.13;100.00;94893.00;4945636;28;20279;-63
2022/04/10 07:38:11;;;;;;;8.80;4.83;;;;;;;3.85;100.00;94883.28;4953560;28;20240;-63
2022/04/10 07:40:57;;;;;;;6.33;4.67;;;;;;;3.96;100.00;94884.59;4949520;28;20201;-63
2022/04/10 07:43:50;;;;;;;8.03;4.93;;;;;;;4.60;100.00;94878.66;4952324;28;20803;-63
2022/04/10 07:49:41;;;;;;;4.83;4.43;;;;;;;4.42;100.00;94897.97;4955130;28;20209;-63
2022/04/10 07:52:30;;;;;;;7.27;3.90;;;;;;;4.88;100.00;94878.84;4952582;28;20198;-59
2022/04/10 07:55:25;;;;;;;5.50;4.13;;;;;;;4.76;100.00;94890.31;4941475;28;20549;-58
2022/04/10 07:58:11;;;;;;;7.73;4.10;;;;;;;5.12;93.34;94884.84;4948568;28;20554;-59
2022/04/10 08:00:57;;;;;;;5.63;4.47;;;;;;;5.53;93.22;94893.13;4948560;28;20291;-59
2022/04/10 08:03:43;;;;;;;6.17;3.80;;;;;;;5.06;93.12;94896.59;4951017;28;20315;-58
2022/04/10 08:06:48;;;;;;;4.40;3.80;;;;;;;4.95;90.87;94904.97;4965580;28;20197;-58
2022/04/10 08:09:34;;;;;;;4.17;3.77;;;;;;;5.17;87.91;94894.41;4960442;28;20611;-58
2022/04/10 08:12:20;;;;;;;5.33;4.17;;;;;;;4.62;85.95;94901.41;4969621;28;20267;-58
2022/04/10 08:15:07;;;;;;;7.37;4.13;;;;;;;4.94;86.30;94903.44;4970493;28;20273;-59
2022/04/10 08:17:53;;;;;;;5.63;3.80;;;;;;;5.32;79.52;94892.88;4953883;28;20209;-58
2022/04/10 08:20:39;;;;;;;7.87;4.27;;;;;;;5.70;79.66;94904.72;4960198;28;20272;-58
2022/04/10 08:23:25;;;;;;;5.07;3.67;;;;;;;5.41;77.79;94904.66;4951632;28;20197;-58
2022/04/10 08:26:11;;;;;;;5.13;3.63;;;;;;;5.71;80.83;94896.16;4964777;28;20196;-58
2022/04/10 08:28:56;;;;;;;4.47;3.60;;;;;;;5.52;79.25;94897.03;4966072;28;20272;-60
2022/04/10 08:31:42;;;;;;;3.90;3.50;;;;;;;6.55;76.10;94889.69;4972546;28;20193;-60
2022/04/10 08:34:28;;;;;;;4.20;3.27;;;;;;;5.80;73.52;94903.69;4952868;28;20216;-61
2022/04/10 08:37:14;;;;;;;4.73;3.53;;;;;;;5.41;70.89;94904.66;4965503;28;20202;-60
2022/04/10 08:40:00;;;;;;;3.57;3.07;;;;;;;5.24;70.19;94919.38;4959936;28;20561;-63
2022/04/10 08:42:47;;;;;;;4.60;3.47;;;;;;;5.61;73.89;94907.25;4963640;28;20269;-63
2022/04/10 08:45:33;;;;;;;5.93;4.07;;;;;;;6.65;67.41;94894.78;4963021;28;20220;-63
2022/04/10 08:48:20;;;;;;;3.80;2.97;;;;;;;6.56;65.71;94904.75;4947477;28;20201;-63
2022/04/10 08:51:06;;;;;;;3.00;2.70;;;;;;;5.72;68.02;94903.09;4970951;28;20193;-63
2022/04/10 08:53:54;;;;;;;7.57;3.50;;;;;;;5.35;67.70;94917.16;4961791;28;20326;-60
2022/04/10 08:56:40;;;;;;;4.53;2.53;;;;;;;5.18;65.34;94917.56;4948653;28;20678;-60
2022/04/10 08:59:27;;;;;;;5.73;2.90;;;;;;;5.07;65.94;94917.84;4966272;28;20210;-59
2022/04/10 09:02:13;;;;;;;3.27;2.50;;;;;;;4.75;68.26;94917.78;4960334;28;20257;-59
2022/04/10 09:04:59;;;;;;;3.97;2.73;;;;;;;4.85;70.03;94924.91;4947707;28;20225;-59
2022/04/10 09:08:05;;;;;;;5.23;3.20;;;;;;;4.27;71.80;94940.00;4964662;28;20275;-63
2022/04/10 09:11:03;;;;;;;3.47;2.40;;;;;;;3.63;74.33;94934.97;4969936;28;20272;-63
2022/04/10 09:13:51;;;;;;;3.97;2.50;;;;;;;3.66;75.46;94936.09;4964553;28;20285;-59
2022/04/10 09:16:36;;;;;;;5.67;2.90;;;;;;;3.67;76.47;94934.91;4968045;28;20220;-59
2022/04/10 09:19:34;;;;;;;4.70;2.87;;;;;;;4.34;77.85;94942.56;4961167;28;20212;-59
2022/04/10 09:22:24;;;;;;;5.63;2.97;;;;;;;5.89;75.10;94936.38;4969274;28;20669;-59
2022/04/10 09:25:13;;;;;;;4.97;3.10;;;;;;;6.47;69.53;94929.81;4954237;28;20256;-59
2022/04/10 09:27:59;;;;;;;3.20;2.03;;;;;;;6.60;66.64;94929.84;4959265;28;20684;-59
2022/04/10 09:30:45;;;;;;;5.90;2.50;;;;;;;6.94;67.94;94921.88;4961245;28;20667;-59
2022/04/10 09:33:48;;;;;;;5.67;2.47;;;;;;;7.53;64.22;94916.53;4966987;28;20602;-60
2022/04/10 09:36:34;;;;;;;4.93;2.50;;;;;;;7.90;67.88;94923.88;4948380;28;20196;-59
2022/04/10 09:39:38;;;;;;;4.73;2.30;;;;;;;7.53;61.57;94915.78;4969178;28;20256;-59
2022/04/10 09:42:34;;;;;;;3.77;1.87;;;;;;;8.09;56.42;94903.03;4955842;28;20200;-59
2022/04/10 09:45:31;;;;;;;5.57;1.90;;;;;;;7.12;52.69;94911.22;4959626;28;20198;-59
2022/04/10 09:48:24;;;;;;;4.47;2.10;;;;;;;7.23;52.65;94901.56;4962222;28;20201;-59
2022/04/10 09:51:11;;;;;;;3.37;1.83;;;;;;;7.10;53.53;94902.75;4961569;28;20196;-59
2022/04/10 09:54:02;;;;;;;5.37;1.93;;;;;;;6.27;52.77;94901.31;4956747;28;20213;-59
2022/04/10 09:56:49;;;;;;;3.57;1.90;;;;;;;6.15;55.41;94900.06;4964229;28;20693;-59
2022/04/10 09:59:48;;;;;;;2.80;1.80;;;;;;;6.49;55.46;94915.81;4973286;28;20276;-59
2022/04/10 10:02:37;;;;;;;7.23;2.13;;;;;;;6.68;54.25;94896.66;4988468;28;20196;-58
2022/04/10 10:05:23;;;;;;;3.60;2.00;;;;;;;6.17;55.78;94905.84;4973015;28;20197;-58
2022/04/10 10:08:09;;;;;;;4.17;2.07;;;;;;;5.87;53.17;94911.69;4968625;28;20395;-58
2022/04/10 10:10:59;;;;;;;3.10;2.00;;;;;;;5.69;56.89;94922.91;4970714;28;20225;-58
2022/04/10 10:13:46;;;;;;;3.33;1.93;;;;;;;5.47;56.36;94908.38;4969548;28;20709;-57
2022/04/10 10:16:34;;;;;;;2.73;2.07;;;;;;;5.97;57.76;94911.38;4935602;29;20559;-58
2022/04/10 10:19:20;;;;;;;2.50;1.83;;;;;;;5.73;56.28;94907.34;4967134;28;20279;-57
2022/04/10 10:22:08;;;;;;;2.93;1.87;;;;;;;6.36;56.20;94915.78;4970046;28;20193;-58
2022/04/10 10:25:27;;;;;;;3.00;2.03;;;;;;;6.30;55.29;94903.91;4954220;28;20698;-57
2022/04/10 10:28:57;;;;;;;3.27;1.80;;;;;;;6.76;54.59;94908.81;4957151;28;20212;-58
2022/04/10 10:32:02;;;;;;;3.33;1.87;;;;;;;6.76;53.64;94903.38;4964395;28;20196;-58
2022/04/10 10:34:50;;;;;;;3.73;1.90;;;;;;;6.63;54.33;94899.13;4973668;28;20770;-57
2022/04/10 10:38:22;;;;;;;1.87;1.60;;;;;;;6.42;55.33;94899.72;4963510;28;20207;-58
2022/04/10 10:41:12;;;;;;;2.00;1.57;;;;;;;5.79;53.31;94896.72;4966658;28;20197;-57
2022/04/10 10:44:13;;;;;;;5.17;2.00;;;;;;;5.31;53.20;94894.09;4961354;28;20345;-57
2022/04/10 10:47:02;;;;;;;2.93;2.03;;;;;;;5.36;54.95;94905.16;4951409;28;20205;-58
2022/04/10 10:49:50;;;;;;;5.90;1.93;;;;;;;5.73;56.44;94896.50;4948781;28;20213;-57
2022/04/10 10:52:40;;;;;;;2.43;1.80;;;;;;;5.93;56.21;94890.97;4950331;29;20197;-57
2022/04/10 10:55:42;;;;;;;3.03;2.00;;;;;;;5.49;57.06;94902.53;4949739;28;20204;-57
2022/04/10 10:58:31;;;;;;;2.77;2.00;;;;;;;5.93;58.21;94902.59;4962783;28;20196;-57
2022/04/10 11:01:19;;;;;;;3.77;2.20;;;;;;;6.22;55.16;94918.09;4959835;28;20560;-57
2022/04/10 11:04:09;;;;;;;6.27;1.93;;;;;;;6.63;53.90;94904.56;4949798;28;20302;-58
2022/04/10 11:07:09;;;;;;;4.03;2.17;;;;;;;6.17;52.33;94897.69;4966239;28;20702;-58
2022/04/10 11:10:08;;;;;;;2.03;1.50;;;;;;;6.07;53.10;94904.19;4968628;28;20220;-57
2022/04/10 11:13:00;;;;;;;3.93;1.90;;;;;;;5.65;52.59;94913.38;4964131;28;20311;-57
2022/04/10 11:15:52;;;;;;;2.67;1.60;;;;;;;5.29;57.57;94923.53;4970504;28;20801;-58
2022/04/10 11:18:43;;;;;;;2.60;1.90;;;;;;;4.35;66.94;94935.97;4963398;28;20659;-58
2022/04/10 11:21:31;;;;;;;4.40;2.53;;;;;;;4.13;72.00;94942.97;4972802;28;20228;-57
2022/04/10 11:24:23;;;;;;;3.83;2.20;;;;;;;4.10;77.44;94943.03;4972635;28;20189;-57
2022/04/10 11:27:13;;;;;;;5.13;2.30;;;;;;;4.12;77.89;94941.44;4961433;28;20213;-57
2022/04/10 11:30:03;;;;;;;4.67;2.47;;;;;;;4.28;80.46;94933.41;4961919;28;20232;-57
2022/04/10 11:33:02;;;;;;;3.03;2.73;;;;;;;5.02;75.63;94926.47;4967266;28;20289;-57
2022/04/10 11:35:55;;;;;;;6.70;2.77;;;;;;;5.39;75.15;94933.34;4971821;28;20272;-58
2022/04/10 11:38:41;;;;;;;7.13;2.63;;;;;;;5.07;72.56;94953.03;4956661;28;20213;-57
2022/04/10 11:41:27;;;;;;;2.93;2.47;;;;;;;4.63;74.53;94940.78;4971543;28;20272;-57
2022/04/10 11:44:13;;;;;;;5.13;2.40;;;;;;;4.27;81.68;94958.16;4971200;28;20225;-57
2022/04/10 11:47:01;;;;;;;2.87;2.17;;;;;;;3.75;87.06;94976.06;4971637;28;20195;-57
2022/04/10 11:49:52;;;;;;;4.20;2.60;;;;;;;3.39;95.46;94975.88;4968156;28;20702;-57
2022/04/10 11:52:38;;;;;;;6.00;2.70;;;;;;;3.33;98.66;94967.47;4952670;29;20194;-57
2022/04/10 11:55:29;;;;;;;3.87;2.90;;;;;;;3.55;93.45;94951.69;4952934;29;20683;-57
2022/04/10 11:58:21;;;;;;;3.27;2.83;;;;;;;3.93;97.80;94957.63;4959664;28;20194;-57
2022/04/10 12:01:07;;;;;;;2.93;2.70;;;;;;;4.69;91.90;94957.31;4961822;28;20205;-57
2022/04/10 12:03:53;;;;;;;2.93;2.63;;;;;;;5.28;86.12;94944.41;4952620;29;20284;-57
2022/04/10 12:06:39;;;;;;;8.00;2.90;;;;;;;5.35;81.26;94949.66;4957088;28;20213;-57
2022/04/10 12:09:25;;;;;;;3.67;3.23;;;;;;;5.04;84.63;94961.22;4970230;28;20310;-61
2022/04/10 12:12:11;;;;;;;5.67;3.37;;;;;;;5.08;89.35;94968.06;4967256;28;20255;-61
2022/04/10 12:14:57;;;;;;;3.53;2.20;;;;;;;4.15;84.92;94969.56;4971613;28;20193;-61
2022/04/10 12:17:43;;;;;;;3.13;2.40;;;;;;;4.41;89.54;94964.03;4957689;28;20223;-61
2022/04/10 12:20:29;;;;;;;2.77;2.50;;;;;;;4.99;89.59;94962.47;4970604;28;20216;-61
2022/04/10 12:23:18;;;;;;;4.37;3.20;;;;;;;5.32;86.60;94966.75;4971088;28;20189;-61
2022/04/10 12:26:05;;;;;;;3.23;2.63;;;;;;;5.88;84.02;94970.09;4968548;28;20205;-61
2022/04/10 12:28:51;;;;;;;7.37;3.30;;;;;;;6.02;85.10;94948.06;4968885;28;20946;-61
2022/04/10 12:31:37;;;;;;;4.23;2.93;;;;;;;5.66;83.80;94948.16;4960310;28;20305;-61
2022/04/10 12:34:23;;;;;;;2.50;2.30;;;;;;;5.93;80.80;94943.25;4971991;28;20236;-58
2022/04/10 12:37:11;;;;;;;5.70;2.97;;;;;;;6.27;80.08;94942.75;4970434;28;20189;-62
2022/04/10 12:39:58;;;;;;;4.33;2.40;;;;;;;6.37;79.71;94932.78;4952466;28;20370;-62
2022/04/10 12:42:44;;;;;;;4.50;2.40;;;;;;;6.56;79.92;94929.94;4965064;28;20205;-58
2022/04/10 12:45:32;;;;;;;3.30;2.27;;;;;;;7.02;74.53;94923.94;4958185;28;20292;-58
2022/04/10 12:48:22;;;;;;;3.17;2.37;;;;;;;6.84;70.74;94910.13;4969983;28;20197;-61
2022/04/10 12:51:14;;;;;;;3.07;1.87;;;;;;;6.61;68.44;94915.84;4967266;28;20196;-58
2022/04/10 12:54:00;;;;;;;3.70;2.10;;;;;;;6.91;69.25;94906.44;4972417;28;20217;-58
2022/04/10 12:56:52;;;;;;;5.13;2.47;;;;;;;6.43;66.74;94902.00;4970515;28;20196;-58
2022/04/10 12:59:40;;;;;;;4.67;3.43;;;;;;;6.83;64.83;94911.31;4963399;28;20252;-58
2022/04/10 13:02:35;;;;;;;5.20;3.47;;;;;;;6.99;63.87;94894.94;4971017;28;20193;-58
2022/04/10 13:05:21;;;;;;;5.43;1.90;;;;;;;7.19;60.70;94908.31;4964771;28;20215;-58
2022/04/10 13:08:11;;;;;;;2.63;1.60;;;;;;;7.46;61.69;94903.19;4961803;28;20194;-58
2022/04/10 13:10:58;;;;;;;2.60;2.27;;;;;;;7.57;59.25;94900.88;4971263;28;20194;-58
2022/04/10 13:14:05;;;;;;;2.73;2.47;;;;;;;7.65;59.93;94890.53;4937253;29;20213;-61
2022/04/10 13:16:50;;;;;;;2.57;1.67;;;;;;;7.35;61.59;94908.94;4962665;28;20200;-61
2022/04/10 13:19:38;;;;;;;2.03;1.43;;;;;;;7.56;59.50;94904.78;4956488;28;20604;-61
2022/04/10 13:22:24;;;;;;;2.77;1.80;;;;;;;7.00;59.94;94903.84;4955685;28;20193;-61